Time,TemperatureF,DewpointF,PressureIn,WindDirection,WindDirectionDegrees,WindSpeedMPH,WindSpeedGustMPH,Humidity,HourlyPrecipIn,Conditions,Clouds,dailyrainin,SolarRadiationWatts/m^2,SoftwareType,DateUTC
2013-03-10 00:00:00,43.3,38.5,30.23,East,80,0.0,0.0,83,0.00,,,0.01,0.0,meteohub,2013-03-10 05:00:00,
2013-03-10 00:06:00,43.5,38.7,30.22,East,80,0.0,0.0,83,0.00,,,0.00,0.0,meteohub,2013-03-10 05:06:00,
2013-03-10 00:11:00,43.3,38.5,30.23,East,80,0.0,0.0,83,0.00,,,0.00,0.0,meteohub,2013-03-10 05:11:00,
2013-03-10 00:16:00,43.3,38.5,30.22,East,80,0.0,0.0,83,0.00,,,0.00,0.0,meteohub,2013-03-10 05:16:00,
2013-03-10 00:21:00,43.2,38.3,30.23,East,80,0.0,0.0,83,0.00,,,0.00,0.0,meteohub,2013-03-10 05:21:00,
2013-03-10 00:26:00,43.0,38.5,30.23,East,80,0.0,0.0,84,0.00,,,0.00,0.0,meteohub,2013-03-10 05:26:00,
2013-03-10 00:31:00,43.0,38.5,30.23,East,80,0.0,0.0,84,0.00,,,0.00,0.0,meteohub,2013-03-10 05:31:00,
2013-03-10 00:36:00,43.0,38.5,30.23,East,80,0.0,0.0,84,0.00,,,0.00,0.0,meteohub,2013-03-10 05:36:00,
2013-03-10 00:41:00,43.0,38.5,30.23,East,80,0.0,0.0,84,0.00,,,0.00,0.0,meteohub,2013-03-10 05:41:00,
2013-03-10 00:46:00,42.8,38.3,30.23,East,80,0.0,0.0,84,0.00,,,0.00,0.0,meteohub,2013-03-10 05:46:00,
2013-03-10 00:51:00,42.8,38.3,30.23,East,80,0.0,0.0,84,0.00,,,0.00,0.0,meteohub,2013-03-10 05:51:00,
2013-03-10 00:56:00,42.8,38.3,30.22,East,80,0.0,0.0,84,0.00,,,0.00,0.0,meteohub,2013-03-10 05:56:00,
2013-03-10 01:01:00,43.0,38.5,30.22,East,80,0.0,0.0,84,0.00,,,0.00,0.0,meteohub,2013-03-10 06:01:00,
2013-03-10 01:06:00,43.0,38.5,30.22,East,80,0.0,0.0,84,0.00,,,0.00,0.0,meteohub,2013-03-10 06:06:00,
2013-03-10 01:11:00,43.0,38.5,30.22,East,80,0.0,0.0,84,0.00,,,0.00,0.0,meteohub,2013-03-10 06:11:00,
2013-03-10 01:16:00,42.6,38.5,30.22,East,80,0.0,0.0,85,0.00,,,0.00,0.0,meteohub,2013-03-10 06:16:00,
2013-03-10 01:21:00,42.6,38.5,30.22,East,80,0.0,0.0,85,0.00,,,0.00,0.0,meteohub,2013-03-10 06:21:00,
2013-03-10 01:26:00,42.4,38.3,30.22,East,80,0.0,0.0,85,0.00,,,0.00,0.0,meteohub,2013-03-10 06:26:00,
2013-03-10 01:31:00,42.4,38.3,30.22,East,80,0.0,0.0,85,0.00,,,0.00,0.0,meteohub,2013-03-10 06:31:00,
2013-03-10 01:36:00,42.3,38.1,30.22,East,80,0.0,0.0,85,0.00,,,0.00,0.0,meteohub,2013-03-10 06:36:00,
2013-03-10 01:41:00,42.1,37.9,30.22,East,80,0.0,0.0,85,0.00,,,0.00,0.0,meteohub,2013-03-10 06:41:00,
2013-03-10 01:46:00,41.9,37.8,30.22,East,80,0.0,0.0,85,0.00,,,0.00,0.0,meteohub,2013-03-10 06:46:00,
2013-03-10 01:51:00,41.9,37.8,30.22,East,80,0.0,0.0,85,0.00,,,0.00,0.0,meteohub,2013-03-10 06:51:00,
2013-03-10 01:56:00,41.9,37.8,30.21,East,80,0.0,0.0,85,0.00,,,0.00,0.0,meteohub,2013-03-10 06:56:00,
2013-03-10 03:01:00,42.1,37.9,30.21,East,80,0.0,-999.0,85,-99.99,,,0.00,0.0,meteohub,2013-03-10 07:01:00,
2013-03-10 03:06:00,42.1,37.9,30.21,East,80,0.0,-999.0,85,-99.99,,,0.00,0.0,meteohub,2013-03-10 07:06:00,
2013-03-10 03:11:00,41.9,37.9,30.21,East,80,0.0,-999.0,86,-99.99,,,0.00,0.0,meteohub,2013-03-10 07:11:00,
2013-03-10 03:16:00,41.9,37.9,30.21,East,80,0.0,-999.0,86,-99.99,,,0.00,0.0,meteohub,2013-03-10 07:16:00,
2013-03-10 03:21:00,41.7,37.8,30.20,East,80,0.0,-999.0,86,-99.99,,,0.00,0.0,meteohub,2013-03-10 07:21:00,
2013-03-10 03:26:00,41.7,37.8,30.20,East,80,0.0,-999.0,86,-99.99,,,0.00,0.0,meteohub,2013-03-10 07:26:00,
2013-03-10 03:31:00,41.9,37.9,30.20,East,80,0.0,-999.0,86,-99.99,,,0.00,0.0,meteohub,2013-03-10 07:31:00,
2013-03-10 03:36:00,42.1,38.1,30.19,East,80,0.0,-999.0,86,-99.99,,,0.00,0.0,meteohub,2013-03-10 07:36:00,
2013-03-10 03:41:00,42.1,38.1,30.19,East,80,0.0,-999.0,86,-99.99,,,0.00,0.0,meteohub,2013-03-10 07:41:00,
2013-03-10 03:46:00,42.1,38.1,30.18,East,80,0.0,-999.0,86,-99.99,,,0.00,0.0,meteohub,2013-03-10 07:46:00,
2013-03-10 03:51:00,41.9,37.9,30.18,East,80,0.0,-999.0,86,-99.99,,,0.00,0.0,meteohub,2013-03-10 07:51:00,
2013-03-10 03:56:00,41.5,37.6,30.18,East,80,0.0,-999.0,86,-99.99,,,0.00,0.0,meteohub,2013-03-10 07:56:00,
2013-03-10 04:01:00,41.5,37.6,30.18,East,80,0.0,-999.0,86,-99.99,,,0.00,0.0,meteohub,2013-03-10 08:01:00,
2013-03-10 04:06:00,41.4,37.8,30.18,East,80,0.0,-999.0,87,-99.99,,,0.00,0.0,meteohub,2013-03-10 08:06:00,
2013-03-10 04:11:00,41.4,37.6,30.18,East,80,0.0,-999.0,86,-99.99,,,0.00,0.0,meteohub,2013-03-10 08:11:00,
2013-03-10 04:16:00,41.4,37.6,30.18,East,80,0.0,-999.0,86,-99.99,,,0.00,0.0,meteohub,2013-03-10 08:16:00,
2013-03-10 04:21:00,41.4,37.6,30.18,East,80,0.0,-999.0,86,-99.99,,,0.00,0.0,meteohub,2013-03-10 08:21:00,
2013-03-10 04:26:00,41.4,37.8,30.18,East,80,0.0,-999.0,87,-99.99,,,0.00,0.0,meteohub,2013-03-10 08:26:00,
2013-03-10 04:31:00,41.4,37.8,30.18,East,80,0.0,-999.0,87,-99.99,,,0.00,0.0,meteohub,2013-03-10 08:31:00,
2013-03-10 04:36:00,41.5,37.9,30.18,East,80,0.0,-999.0,87,-99.99,,,0.00,0.0,meteohub,2013-03-10 08:36:00,
2013-03-10 04:41:00,41.7,38.1,30.18,East,80,0.0,-999.0,87,-99.99,,,0.00,0.0,meteohub,2013-03-10 08:41:00,
2013-03-10 04:46:00,41.7,38.1,30.18,East,79,0.0,-999.0,87,-99.99,,,0.00,0.0,meteohub,2013-03-10 08:46:00,
2013-03-10 04:51:00,41.7,38.1,30.18,East,80,0.0,-999.0,87,-99.99,,,0.00,0.0,meteohub,2013-03-10 08:51:00,
2013-03-10 04:56:00,41.5,37.9,30.18,East,80,0.0,-999.0,87,-99.99,,,0.00,0.0,meteohub,2013-03-10 08:56:00,
2013-03-10 05:01:00,41.5,37.9,30.19,East,80,0.0,-999.0,87,-99.99,,,0.00,0.0,meteohub,2013-03-10 09:01:00,
2013-03-10 05:06:00,41.5,37.9,30.19,East,80,0.0,-999.0,87,-99.99,,,0.00,0.0,meteohub,2013-03-10 09:06:00,
2013-03-10 05:11:00,41.5,37.9,30.18,East,80,0.0,-999.0,87,-99.99,,,0.00,0.0,meteohub,2013-03-10 09:11:00,
2013-03-10 05:16:00,41.9,38.7,30.18,East,80,0.0,-999.0,88,-99.99,,,0.00,0.0,meteohub,2013-03-10 09:16:00,
2013-03-10 05:21:00,42.1,38.8,30.19,East,80,0.0,-999.0,88,-99.99,,,0.00,0.0,meteohub,2013-03-10 09:21:00,
2013-03-10 05:26:00,42.1,38.8,30.19,East,80,0.0,-999.0,88,-99.99,,,0.00,0.0,meteohub,2013-03-10 09:26:00,
2013-03-10 05:31:00,42.3,39.0,30.19,East,80,0.0,-999.0,88,-99.99,,,0.00,0.0,meteohub,2013-03-10 09:31:00,
2013-03-10 05:36:00,42.3,39.0,30.19,East,80,0.0,-999.0,88,-99.99,,,0.00,0.0,meteohub,2013-03-10 09:36:00,
2013-03-10 05:41:00,42.4,39.2,30.19,East,80,0.0,-999.0,88,-99.99,,,0.00,0.0,meteohub,2013-03-10 09:41:00,
2013-03-10 05:46:00,42.4,39.2,30.19,East,80,0.0,-999.0,88,-99.99,,,0.00,0.0,meteohub,2013-03-10 09:46:00,
2013-03-10 05:51:00,42.6,39.4,30.19,East,80,0.0,-999.0,88,-99.99,,,0.00,0.0,meteohub,2013-03-10 09:51:00,
2013-03-10 05:56:00,43.0,39.7,30.19,East,80,0.0,-999.0,88,-99.99,,,0.00,0.0,meteohub,2013-03-10 09:56:00,
2013-03-10 06:01:00,43.2,39.9,30.19,East,80,0.0,-999.0,88,-99.99,,,0.00,0.0,meteohub,2013-03-10 10:01:00,
2013-03-10 06:06:00,43.2,39.9,30.19,East,80,0.0,-999.0,88,-99.99,,,0.00,0.0,meteohub,2013-03-10 10:06:00,
2013-03-10 06:11:00,43.2,39.9,30.19,East,80,0.0,-999.0,88,-99.99,,,0.00,0.0,meteohub,2013-03-10 10:11:00,
2013-03-10 06:16:00,43.2,39.9,30.19,East,80,0.0,-999.0,88,-99.99,,,0.00,0.0,meteohub,2013-03-10 10:16:00,
2013-03-10 06:21:00,43.2,39.9,30.19,East,80,0.0,-999.0,88,-99.99,,,0.00,0.0,meteohub,2013-03-10 10:21:00,
2013-03-10 06:26:00,43.3,40.1,30.19,East,80,0.0,-999.0,88,-99.99,,,0.00,0.0,meteohub,2013-03-10 10:26:00,
2013-03-10 06:31:00,43.3,40.1,30.19,East,80,0.0,-999.0,88,-99.99,,,0.00,0.0,meteohub,2013-03-10 10:31:00,
2013-03-10 06:36:00,43.2,40.1,30.19,East,80,0.0,-999.0,89,-99.99,,,0.00,0.0,meteohub,2013-03-10 10:36:00,
2013-03-10 06:41:00,43.3,40.3,30.20,East,80,0.0,-999.0,89,-99.99,,,0.00,0.0,meteohub,2013-03-10 10:41:00,
2013-03-10 06:46:00,43.3,40.3,30.20,East,80,0.0,-999.0,89,-99.99,,,0.00,0.0,meteohub,2013-03-10 10:46:00,
2013-03-10 06:51:00,43.3,40.3,30.20,East,80,0.0,-999.0,89,-99.99,,,0.00,0.0,meteohub,2013-03-10 10:51:00,
2013-03-10 06:56:00,43.2,40.1,30.20,East,80,0.0,-999.0,89,-99.99,,,0.00,0.0,meteohub,2013-03-10 10:56:00,
2013-03-10 07:01:00,43.3,40.3,30.20,East,80,0.0,-999.0,89,-99.99,,,0.00,0.0,meteohub,2013-03-10 11:01:00,
2013-03-10 07:06:00,43.5,40.5,30.20,East,80,0.0,-999.0,89,-99.99,,,0.00,0.0,meteohub,2013-03-10 11:06:00,
2013-03-10 07:11:00,43.7,40.6,30.20,East,80,0.0,-999.0,89,-99.99,,,0.00,0.0,meteohub,2013-03-10 11:11:00,
2013-03-10 07:16:00,43.9,40.8,30.19,East,80,0.0,0.0,89,-99.99,,,0.00,0.0,meteohub,2013-03-10 11:16:00,
2013-03-10 07:21:00,43.9,40.8,30.19,East,80,0.0,0.0,89,-99.99,,,0.00,0.0,meteohub,2013-03-10 11:21:00,
2013-03-10 07:26:00,43.9,40.8,30.19,East,80,0.0,0.0,89,-99.99,,,0.00,0.0,meteohub,2013-03-10 11:26:00,
2013-03-10 07:31:00,43.7,40.6,30.19,East,80,0.0,0.0,89,-99.99,,,0.00,0.0,meteohub,2013-03-10 11:31:00,
2013-03-10 07:36:00,43.5,40.5,30.20,East,80,0.0,0.0,89,-99.99,,,0.00,0.0,meteohub,2013-03-10 11:36:00,
2013-03-10 07:41:00,43.5,40.5,30.20,East,80,0.0,0.0,89,-99.99,,,0.00,0.0,meteohub,2013-03-10 11:41:00,
2013-03-10 07:47:00,43.5,40.5,30.21,East,80,0.0,0.0,89,-99.99,,,0.00,5.0,meteohub,2013-03-10 11:47:00,
2013-03-10 07:52:00,43.5,40.8,30.20,East,80,0.0,0.0,90,-99.99,,,0.00,12.0,meteohub,2013-03-10 11:52:00,
2013-03-10 07:57:00,43.9,40.8,30.20,East,80,0.0,0.0,89,-99.99,,,0.00,19.0,meteohub,2013-03-10 11:57:00,
2013-03-10 08:02:00,43.9,41.2,30.20,East,80,0.0,0.0,90,0.00,,,0.00,30.0,meteohub,2013-03-10 12:02:00,
2013-03-10 08:07:00,44.1,41.4,30.20,East,80,0.0,0.0,90,0.00,,,0.00,40.0,meteohub,2013-03-10 12:07:00,
2013-03-10 08:12:00,44.2,41.5,30.22,East,80,0.0,0.0,90,0.00,,,0.00,54.0,meteohub,2013-03-10 12:12:00,
2013-03-10 08:17:00,44.8,42.1,30.22,East,80,0.0,0.0,90,0.00,,,0.00,79.0,meteohub,2013-03-10 12:17:00,
2013-03-10 08:22:00,45.3,42.6,30.22,East,80,0.0,0.0,90,0.00,,,0.00,88.0,meteohub,2013-03-10 12:22:00,
2013-03-10 08:27:00,46.0,43.3,30.22,East,80,0.0,0.0,90,0.00,,,0.00,132.0,meteohub,2013-03-10 12:27:00,
2013-03-10 08:31:00,46.8,44.1,30.23,East,80,0.0,0.0,90,0.00,,,0.00,158.0,meteohub,2013-03-10 12:31:00,
2013-03-10 08:37:00,48.0,45.1,30.23,East,80,0.0,1.0,90,0.00,,,0.00,146.0,meteohub,2013-03-10 12:37:00,
2013-03-10 08:42:00,48.9,46.0,30.23,East,80,0.0,1.0,90,0.00,,,0.00,109.0,meteohub,2013-03-10 12:42:00,
2013-03-10 08:47:00,49.8,47.3,30.24,East,80,0.0,1.0,91,0.00,,,0.00,149.0,meteohub,2013-03-10 12:47:00,
2013-03-10 08:52:00,50.7,47.8,30.24,East,80,0.0,2.0,90,0.00,,,0.00,118.0,meteohub,2013-03-10 12:52:00,
2013-03-10 08:57:00,51.4,48.9,30.24,NE,46,1.0,2.0,91,0.00,,,0.00,104.0,meteohub,2013-03-10 12:57:00,
2013-03-10 09:02:00,52.0,49.5,30.24,NE,46,0.0,4.0,91,0.00,,,0.00,132.0,meteohub,2013-03-10 13:02:00,
2013-03-10 09:07:00,52.3,49.8,30.24,NE,46,0.0,4.0,91,0.00,,,0.00,144.0,meteohub,2013-03-10 13:07:00,
2013-03-10 09:12:00,52.7,50.2,30.24,NE,45,4.0,4.0,91,0.00,,,0.00,151.0,meteohub,2013-03-10 13:12:00,
2013-03-10 09:17:00,53.2,50.7,30.23,NE,56,0.0,4.0,91,0.00,,,0.00,272.0,meteohub,2013-03-10 13:17:00,
2013-03-10 09:22:00,54.0,51.4,30.23,NE,47,0.0,4.0,91,0.00,,,0.00,227.0,meteohub,2013-03-10 13:22:00,
2013-03-10 09:27:00,54.3,51.8,30.23,ENE,65,1.0,4.0,91,0.00,,,0.00,276.0,meteohub,2013-03-10 13:27:00,
2013-03-10 09:32:00,54.9,52.3,30.23,NNE,28,3.0,4.0,91,0.00,,,0.00,144.0,meteohub,2013-03-10 13:32:00,
2013-03-10 09:37:00,55.2,52.7,30.24,NE,47,0.0,4.0,91,0.00,,,0.00,69.0,meteohub,2013-03-10 13:37:00,
2013-03-10 09:42:00,55.6,52.7,30.24,NE,40,1.0,4.0,90,0.00,,,0.00,257.0,meteohub,2013-03-10 13:42:00,
2013-03-10 09:47:00,55.9,53.1,30.24,NNE,25,0.0,4.0,90,0.00,,,0.00,192.0,meteohub,2013-03-10 13:47:00,
2013-03-10 09:52:00,56.5,53.6,30.24,NNE,15,1.0,4.0,90,0.00,,,0.00,394.0,meteohub,2013-03-10 13:52:00,
2013-03-10 09:57:00,56.8,54.0,30.23,NE,52,2.0,7.0,90,0.00,,,0.00,431.0,meteohub,2013-03-10 13:57:00,
2013-03-10 10:02:00,57.6,54.3,30.23,NE,44,4.0,10.0,89,0.00,,,0.00,450.0,meteohub,2013-03-10 14:02:00,
2013-03-10 10:07:00,58.3,55.0,30.23,North,0,6.0,10.0,89,0.00,,,0.00,464.0,meteohub,2013-03-10 14:07:00,
2013-03-10 10:12:00,59.0,55.8,30.23,East,80,7.0,10.0,89,0.00,,,0.00,476.0,meteohub,2013-03-10 14:12:00,
2013-03-10 10:17:00,59.4,55.8,30.23,NNE,30,3.0,11.0,88,0.00,,,0.00,490.0,meteohub,2013-03-10 14:17:00,
2013-03-10 10:22:00,59.9,55.9,30.23,NE,49,1.0,12.0,87,0.00,,,0.00,503.0,meteohub,2013-03-10 14:22:00,
2013-03-10 10:27:00,60.6,56.7,30.23,ESE,107,3.0,12.0,87,0.00,,,0.00,513.0,meteohub,2013-03-10 14:27:00,
2013-03-10 10:32:00,61.2,57.0,30.22,East,94,2.0,11.0,86,0.00,,,0.00,529.0,meteohub,2013-03-10 14:32:00,
2013-03-10 10:37:00,61.5,57.0,30.22,NE,50,3.0,11.0,85,0.00,,,0.00,547.0,meteohub,2013-03-10 14:37:00,
2013-03-10 10:42:00,61.9,57.4,30.22,NE,48,4.0,12.0,85,0.00,,,0.00,563.0,meteohub,2013-03-10 14:42:00,
2013-03-10 10:47:00,62.1,57.2,30.22,SSE,161,2.0,12.0,84,0.00,,,0.00,580.0,meteohub,2013-03-10 14:47:00,
2013-03-10 10:52:00,62.4,57.2,30.22,ENE,67,7.0,11.0,83,0.00,,,0.00,598.0,meteohub,2013-03-10 14:52:00,
2013-03-10 10:57:00,62.4,57.2,30.22,NE,53,3.0,13.0,83,0.00,,,0.00,599.0,meteohub,2013-03-10 14:57:00,
2013-03-10 11:02:00,62.2,57.0,30.22,NE,34,7.0,13.0,83,0.00,,,0.00,633.0,meteohub,2013-03-10 15:02:00,
2013-03-10 11:07:00,62.4,57.2,30.21,NE,38,5.0,13.0,83,0.00,,,0.00,647.0,meteohub,2013-03-10 15:07:00,
2013-03-10 11:12:00,62.4,56.8,30.21,NE,38,6.0,13.0,82,0.00,,,0.00,522.0,meteohub,2013-03-10 15:12:00,
2013-03-10 11:17:00,62.6,57.0,30.21,ENE,65,4.0,12.0,82,0.00,,,0.00,666.0,meteohub,2013-03-10 15:17:00,
2013-03-10 11:22:00,63.0,57.4,30.21,NE,48,8.0,14.0,82,0.00,,,0.00,670.0,meteohub,2013-03-10 15:22:00,
2013-03-10 11:27:00,62.8,57.2,30.21,ENE,60,8.0,14.0,82,0.00,,,0.00,684.0,meteohub,2013-03-10 15:27:00,
2013-03-10 11:32:00,62.8,57.2,30.21,NE,56,3.0,13.0,82,0.00,,,0.00,680.0,meteohub,2013-03-10 15:32:00,
2013-03-10 11:37:00,63.1,57.6,30.21,NE,44,3.0,13.0,82,0.00,,,0.00,705.0,meteohub,2013-03-10 15:37:00,
2013-03-10 11:42:00,63.3,57.7,30.21,NE,56,4.0,13.0,82,0.00,,,0.00,717.0,meteohub,2013-03-10 15:42:00,
2013-03-10 11:47:00,63.7,57.7,30.21,NNE,28,8.0,11.0,81,0.00,,,0.00,728.0,meteohub,2013-03-10 15:47:00,
2013-03-10 11:52:00,63.9,57.9,30.21,ENE,63,9.0,11.0,81,0.00,,,0.00,738.0,meteohub,2013-03-10 15:52:00,
2013-03-10 11:57:00,63.9,57.9,30.21,ENE,76,4.0,15.0,81,0.00,,,0.00,749.0,meteohub,2013-03-10 15:57:00,
2013-03-10 12:02:00,64.0,58.1,30.21,East,94,9.0,15.0,81,0.00,,,0.00,768.0,meteohub,2013-03-10 16:02:00,
2013-03-10 12:07:00,64.8,58.5,30.21,ENE,78,8.0,13.0,80,0.00,,,0.00,772.0,meteohub,2013-03-10 16:07:00,
2013-03-10 12:12:00,64.6,58.3,30.21,NE,53,5.0,12.0,80,0.00,,,0.00,756.0,meteohub,2013-03-10 16:12:00,
2013-03-10 12:17:00,64.9,58.6,30.21,East,87,5.0,12.0,80,0.00,,,0.00,786.0,meteohub,2013-03-10 16:17:00,
2013-03-10 12:22:00,64.9,58.3,30.21,NE,55,3.0,14.0,79,0.00,,,0.00,793.0,meteohub,2013-03-10 16:22:00,
2013-03-10 12:27:00,65.1,58.5,30.20,NE,40,1.0,14.0,79,0.00,,,0.00,800.0,meteohub,2013-03-10 16:27:00,
2013-03-10 12:32:00,65.5,58.8,30.20,NE,34,3.0,14.0,79,0.00,,,0.00,803.0,meteohub,2013-03-10 16:32:00,
2013-03-10 12:37:00,65.8,58.8,30.19,East,82,6.0,10.0,78,0.00,,,0.00,812.0,meteohub,2013-03-10 16:37:00,
2013-03-10 12:42:00,66.4,59.4,30.20,East,98,1.0,9.0,78,0.00,,,0.00,816.0,meteohub,2013-03-10 16:42:00,
2013-03-10 12:47:00,66.0,59.0,30.19,ENE,59,7.0,15.0,78,0.00,,,0.00,821.0,meteohub,2013-03-10 16:47:00,
2013-03-10 12:52:00,65.8,58.8,30.19,East,79,7.0,15.0,78,0.00,,,0.00,824.0,meteohub,2013-03-10 16:52:00,
2013-03-10 12:57:00,65.7,58.3,30.19,ESE,117,0.0,15.0,77,0.00,,,0.00,828.0,meteohub,2013-03-10 16:57:00,
2013-03-10 13:02:00,65.7,58.6,30.19,NNE,19,7.0,14.0,78,0.00,,,0.00,831.0,meteohub,2013-03-10 17:02:00,
2013-03-10 13:07:00,65.8,58.8,30.19,East,101,1.0,14.0,78,0.00,,,0.00,835.0,meteohub,2013-03-10 17:07:00,
2013-03-10 13:12:00,65.8,58.8,30.19,ENE,57,9.0,14.0,78,0.00,,,0.00,837.0,meteohub,2013-03-10 17:12:00,
2013-03-10 13:17:00,65.7,58.6,30.19,NNE,26,2.0,12.0,78,0.00,,,0.00,838.0,meteohub,2013-03-10 17:17:00,
2013-03-10 13:22:00,65.8,58.8,30.18,North,355,6.0,13.0,78,0.00,,,0.00,840.0,meteohub,2013-03-10 17:22:00,
2013-03-10 13:27:00,66.0,59.0,30.18,NNE,17,7.0,13.0,78,0.00,,,0.00,844.0,meteohub,2013-03-10 17:27:00,
2013-03-10 13:32:00,66.4,59.0,30.18,East,99,6.0,12.0,77,0.00,,,0.00,837.0,meteohub,2013-03-10 17:32:00,
2013-03-10 13:37:00,66.4,59.0,30.18,NE,36,6.0,13.0,77,0.00,,,0.00,844.0,meteohub,2013-03-10 17:37:00,
2013-03-10 13:42:00,66.2,58.8,30.18,NE,44,1.0,13.0,77,0.00,,,0.00,844.0,meteohub,2013-03-10 17:42:00,
2013-03-10 13:47:00,66.4,58.6,30.18,NE,46,7.0,13.0,76,0.00,,,0.00,838.0,meteohub,2013-03-10 17:47:00,
2013-03-10 13:52:00,66.7,59.0,30.18,ESE,119,8.0,13.0,76,0.00,,,0.00,844.0,meteohub,2013-03-10 17:52:00,
2013-03-10 13:57:00,66.7,59.0,30.18,ESE,115,3.0,13.0,76,0.00,,,0.00,842.0,meteohub,2013-03-10 17:57:00,
2013-03-10 14:02:00,66.7,59.0,30.18,NNE,28,11.0,13.0,76,0.00,,,0.00,842.0,meteohub,2013-03-10 18:02:00,
2013-03-10 14:07:00,66.6,58.5,30.17,NNE,33,7.0,12.0,75,0.00,,,0.00,838.0,meteohub,2013-03-10 18:07:00,
2013-03-10 14:12:00,66.6,58.5,30.17,East,100,3.0,15.0,75,0.00,,,0.00,833.0,meteohub,2013-03-10 18:12:00,
2013-03-10 14:17:00,66.7,58.6,30.17,ESE,112,3.0,15.0,75,0.00,,,0.00,838.0,meteohub,2013-03-10 18:17:00,
2013-03-10 14:22:00,67.1,58.8,30.17,NNE,26,11.0,11.0,75,0.00,,,0.00,828.0,meteohub,2013-03-10 18:22:00,
2013-03-10 14:27:00,66.9,58.8,30.16,NE,55,7.0,12.0,75,0.00,,,0.00,824.0,meteohub,2013-03-10 18:27:00,
2013-03-10 14:32:00,66.9,58.8,30.16,ESE,123,5.0,13.0,75,0.00,,,0.00,821.0,meteohub,2013-03-10 18:32:00,
2013-03-10 14:37:00,66.6,58.5,30.16,East,86,5.0,14.0,75,0.00,,,0.00,814.0,meteohub,2013-03-10 18:37:00,
2013-03-10 14:42:00,66.6,58.5,30.16,NNE,31,7.0,14.0,75,0.00,,,0.00,812.0,meteohub,2013-03-10 18:42:00,
2013-03-10 14:47:00,66.9,58.3,30.16,East,94,7.0,15.0,74,0.00,,,0.00,805.0,meteohub,2013-03-10 18:47:00,
2013-03-10 14:52:00,67.1,58.5,30.16,ENE,59,2.0,15.0,74,0.00,,,0.00,796.0,meteohub,2013-03-10 18:52:00,
2013-03-10 14:57:00,67.3,58.6,30.16,ENE,63,7.0,15.0,74,0.00,,,0.00,789.0,meteohub,2013-03-10 18:57:00,
2013-03-10 15:02:00,66.9,58.3,30.16,ENE,71,4.0,15.0,74,0.00,,,0.00,780.0,meteohub,2013-03-10 19:02:00,
2013-03-10 15:07:00,66.7,58.1,30.16,NE,39,12.0,13.0,74,0.00,,,0.00,705.0,meteohub,2013-03-10 19:07:00,
2013-03-10 15:12:00,66.7,58.1,30.16,NE,48,5.0,13.0,74,0.00,,,0.00,775.0,meteohub,2013-03-10 19:12:00,
2013-03-10 15:17:00,66.9,58.3,30.16,NE,42,2.0,14.0,74,0.00,,,0.00,761.0,meteohub,2013-03-10 19:17:00,
2013-03-10 15:22:00,67.1,58.5,30.16,NE,52,6.0,14.0,74,0.00,,,0.00,770.0,meteohub,2013-03-10 19:22:00,
2013-03-10 15:27:00,67.1,58.5,30.16,SE,132,6.0,13.0,74,0.00,,,0.00,740.0,meteohub,2013-03-10 19:27:00,
2013-03-10 15:32:00,67.5,58.8,30.16,NE,34,4.0,13.0,74,0.00,,,0.00,731.0,meteohub,2013-03-10 19:32:00,
2013-03-10 15:37:00,67.6,58.6,30.16,ENE,75,4.0,13.0,73,0.00,,,0.00,737.0,meteohub,2013-03-10 19:37:00,
2013-03-10 15:42:00,67.3,58.3,30.16,NNE,26,11.0,11.0,73,0.00,,,0.00,740.0,meteohub,2013-03-10 19:42:00,
2013-03-10 15:47:00,67.1,58.5,30.16,East,98,2.0,13.0,74,0.00,,,0.00,714.0,meteohub,2013-03-10 19:47:00,
2013-03-10 15:52:00,67.3,58.3,30.16,ESE,106,5.0,13.0,73,0.00,,,0.00,691.0,meteohub,2013-03-10 19:52:00,
2013-03-10 15:57:00,67.6,58.6,30.16,ENE,67,5.0,12.0,73,0.00,,,0.00,675.0,meteohub,2013-03-10 19:57:00,
2013-03-10 16:02:00,67.6,58.6,30.16,NE,49,2.0,10.0,73,0.00,,,0.00,666.0,meteohub,2013-03-10 20:02:00,
2013-03-10 16:07:00,67.6,58.6,30.15,NE,53,5.0,14.0,73,0.00,,,0.00,659.0,meteohub,2013-03-10 20:07:00,
2013-03-10 16:12:00,67.3,58.3,30.15,NNE,22,10.0,14.0,73,0.00,,,0.00,621.0,meteohub,2013-03-10 20:12:00,
2013-03-10 16:17:00,66.9,58.3,30.15,NE,41,6.0,14.0,74,0.00,,,0.00,445.0,meteohub,2013-03-10 20:17:00,
2013-03-10 16:22:00,66.9,58.3,30.15,NE,36,9.0,13.0,74,0.00,,,0.00,624.0,meteohub,2013-03-10 20:22:00,
2013-03-10 16:27:00,66.6,58.1,30.15,NNE,24,5.0,14.0,74,0.00,,,0.00,570.0,meteohub,2013-03-10 20:27:00,
2013-03-10 16:32:00,66.0,57.6,30.16,ENE,65,8.0,15.0,74,0.00,,,0.00,603.0,meteohub,2013-03-10 20:32:00,
2013-03-10 16:37:00,65.8,57.4,30.16,NE,45,6.0,15.0,74,0.00,,,0.00,529.0,meteohub,2013-03-10 20:37:00,
2013-03-10 16:42:00,65.7,57.2,30.16,ENE,75,8.0,14.0,74,0.00,,,0.00,374.0,meteohub,2013-03-10 20:42:00,
2013-03-10 16:43:00,65.7,57.2,30.16,NNW,340,6.0,14.0,74,0.00,,,0.00,374.0,meteohub,2013-03-10 20:43:00,
2013-03-10 16:47:00,65.7,57.2,30.16,ENE,78,7.0,14.0,74,0.00,,,0.00,294.0,meteohub,2013-03-10 20:47:00,
2013-03-10 16:57:00,65.3,56.8,30.16,North,10,6.0,13.0,74,0.00,,,0.00,292.0,meteohub,2013-03-10 20:57:00,
2013-03-10 17:02:00,64.9,56.5,30.16,NNE,15,7.0,13.0,74,0.00,,,0.00,213.0,meteohub,2013-03-10 21:02:00,
2013-03-10 17:07:00,64.6,56.1,30.15,NNE,26,7.0,13.0,74,0.00,,,0.00,200.0,meteohub,2013-03-10 21:07:00,
2013-03-10 17:12:00,64.2,55.8,30.16,NNE,32,6.0,13.0,74,0.00,,,0.00,239.0,meteohub,2013-03-10 21:12:00,
2013-03-10 17:17:00,64.0,55.9,30.16,NE,53,12.0,13.0,75,0.00,,,0.00,185.0,meteohub,2013-03-10 21:17:00,
2013-03-10 17:22:00,64.0,55.9,30.16,East,95,5.0,14.0,75,0.00,,,0.00,183.0,meteohub,2013-03-10 21:22:00,
2013-03-10 17:27:00,63.9,55.8,30.16,ENE,72,3.0,14.0,75,0.00,,,0.00,258.0,meteohub,2013-03-10 21:27:00,
2013-03-10 17:32:00,63.7,55.6,30.16,ENE,78,10.0,14.0,75,0.00,,,0.00,192.0,meteohub,2013-03-10 21:32:00,
2013-03-10 17:37:00,63.5,55.4,30.16,ENE,58,9.0,14.0,75,0.00,,,0.00,199.0,meteohub,2013-03-10 21:37:00,
2013-03-10 17:42:00,63.3,55.6,30.15,NNE,19,6.0,13.0,76,0.00,,,0.00,142.0,meteohub,2013-03-10 21:42:00,
2013-03-10 17:47:00,63.3,55.6,30.15,NE,45,8.0,13.0,76,0.00,,,0.00,135.0,meteohub,2013-03-10 21:47:00,
2013-03-10 17:52:00,63.1,55.4,30.15,NNE,18,6.0,12.0,76,0.00,,,0.00,120.0,meteohub,2013-03-10 21:52:00,
2013-03-10 17:57:00,63.0,55.2,30.15,NNE,31,9.0,12.0,76,0.00,,,0.00,90.0,meteohub,2013-03-10 21:57:00,
2013-03-10 18:02:00,62.8,55.0,30.15,ENE,73,7.0,12.0,76,0.00,,,0.00,91.0,meteohub,2013-03-10 22:02:00,
2013-03-10 18:07:00,62.6,54.9,30.15,NE,53,4.0,12.0,76,0.00,,,0.00,128.0,meteohub,2013-03-10 22:07:00,
2013-03-10 18:12:00,62.8,55.0,30.15,NE,36,3.0,12.0,76,0.00,,,0.00,199.0,meteohub,2013-03-10 22:12:00,
2013-03-10 18:17:00,63.0,55.2,30.15,ENE,74,5.0,10.0,76,0.00,,,0.00,104.0,meteohub,2013-03-10 22:17:00,
2013-03-10 18:22:00,62.8,55.4,30.15,North,11,8.0,10.0,77,0.00,,,0.00,86.0,meteohub,2013-03-10 22:22:00,
2013-03-10 18:27:00,62.4,55.0,30.14,ENE,65,10.0,-999.0,77,-99.99,,,0.00,125,weatherlink.com 1.10,2013-03-10 22:27:00,
2013-03-10 18:32:00,62.1,54.7,30.15,East,99,5.0,13.0,77,0.00,,,0.00,97.0,meteohub,2013-03-10 22:32:00,
2013-03-10 18:37:00,61.9,54.7,30.15,ENE,78,4.0,13.0,77,0.00,,,0.00,65.0,meteohub,2013-03-10 22:37:00,
2013-03-10 18:42:00,61.5,54.7,30.15,NE,54,2.0,13.0,78,0.00,,,0.00,49.0,meteohub,2013-03-10 22:42:00,
2013-03-10 18:47:00,61.3,54.5,30.15,North,355,4.0,11.0,78,0.00,,,0.00,53.0,meteohub,2013-03-10 22:47:00,
2013-03-10 18:52:00,61.2,54.3,30.15,East,94,2.0,10.0,78,0.00,,,0.00,54.0,meteohub,2013-03-10 22:52:00,
2013-03-10 18:57:00,61.0,54.1,30.15,ENE,72,8.0,8.0,78,0.00,,,0.00,46.0,meteohub,2013-03-10 22:57:00,
2013-03-10 19:02:00,60.6,53.8,30.15,NE,53,4.0,8.0,78,0.00,,,0.00,35.0,meteohub,2013-03-10 23:02:00,
2013-03-10 19:08:00,60.4,54.0,30.15,ENE,75,1.0,8.0,79,0.00,,,0.00,35.0,meteohub,2013-03-10 23:08:00,
2013-03-10 19:12:00,60.3,53.8,30.16,North,0,6.0,8.0,79,0.00,,,0.00,25.0,meteohub,2013-03-10 23:12:00,
2013-03-10 19:17:00,60.3,53.8,30.16,NE,40,1.0,8.0,79,0.00,,,0.00,14.0,meteohub,2013-03-10 23:17:00,
2013-03-10 19:22:00,60.1,53.6,30.16,NE,38,0.0,8.0,79,0.00,,,0.00,9.0,meteohub,2013-03-10 23:22:00,
2013-03-10 19:27:00,59.9,53.4,30.16,ENE,69,2.0,11.0,79,0.00,,,0.00,5.0,meteohub,2013-03-10 23:27:00,
2013-03-10 19:32:00,59.7,53.6,30.16,ENE,61,2.0,11.0,80,0.00,,,0.00,0.0,meteohub,2013-03-10 23:32:00,
2013-03-10 19:37:00,59.7,53.6,30.16,NNE,30,0.0,5.0,80,0.00,,,0.00,0.0,meteohub,2013-03-10 23:37:00,
2013-03-10 19:42:00,59.7,53.6,30.16,East,79,0.0,6.0,80,0.00,,,0.00,0.0,meteohub,2013-03-10 23:42:00,
2013-03-10 19:48:00,59.5,53.4,30.16,NNE,29,3.0,6.0,80,0.00,,,0.00,0.0,meteohub,2013-03-10 23:48:00,
2013-03-10 19:53:00,59.5,53.4,30.16,East,85,0.0,6.0,80,0.00,,,0.00,0.0,meteohub,2013-03-10 23:53:00,
2013-03-10 19:58:00,59.4,53.6,30.16,NNE,21,0.0,6.0,81,0.00,,,0.00,0.0,meteohub,2013-03-10 23:58:00,
2013-03-10 20:03:00,59.4,53.6,30.16,NNE,22,3.0,7.0,81,0.00,,,0.00,0.0,meteohub,2013-03-11 00:03:00,
2013-03-10 20:08:00,59.2,53.4,30.16,NNE,30,2.0,7.0,81,0.00,,,0.00,0.0,meteohub,2013-03-11 00:08:00,
2013-03-10 20:13:00,59.2,53.4,30.15,NNE,31,2.0,7.0,81,0.00,,,0.00,0.0,meteohub,2013-03-11 00:13:00,
2013-03-10 20:18:00,59.0,53.2,30.15,NE,53,2.0,6.0,81,0.00,,,0.00,0.0,meteohub,2013-03-11 00:18:00,
2013-03-10 20:23:00,59.0,53.6,30.15,East,88,2.0,6.0,82,0.00,,,0.00,0.0,meteohub,2013-03-11 00:23:00,
2013-03-10 20:28:00,59.0,53.6,30.16,ENE,63,3.0,6.0,82,0.00,,,0.00,0.0,meteohub,2013-03-11 00:28:00,
2013-03-10 20:33:00,59.0,53.6,30.15,ENE,67,1.0,6.0,82,0.00,,,0.00,0.0,meteohub,2013-03-11 00:33:00,
2013-03-10 20:38:00,58.8,53.4,30.15,ENE,67,0.0,5.0,82,0.00,,,0.00,0.0,meteohub,2013-03-11 00:38:00,
2013-03-10 20:43:00,58.8,53.4,30.15,ENE,68,0.0,5.0,82,0.00,,,0.00,0.0,meteohub,2013-03-11 00:43:00,
2013-03-10 20:48:00,58.8,53.6,30.15,ENE,68,1.0,5.0,83,0.00,,,0.00,0.0,meteohub,2013-03-11 00:48:00,
2013-03-10 20:53:00,58.8,53.6,30.15,ENE,68,1.0,5.0,83,0.00,,,0.00,0.0,meteohub,2013-03-11 00:53:00,
2013-03-10 20:58:00,59.0,53.8,30.15,ENE,68,0.0,3.0,83,0.00,,,0.00,0.0,meteohub,2013-03-11 00:58:00,
2013-03-10 21:03:00,59.0,53.8,30.16,ENE,68,0.0,3.0,83,0.00,,,0.00,0.0,meteohub,2013-03-11 01:03:00,
2013-03-10 21:08:00,59.0,53.8,30.16,ENE,68,0.0,3.0,83,0.00,,,0.00,0.0,meteohub,2013-03-11 01:08:00,
2013-03-10 21:13:00,58.8,53.6,30.16,ENE,68,0.0,3.0,83,0.00,,,0.00,0.0,meteohub,2013-03-11 01:13:00,
2013-03-10 21:18:00,59.0,53.8,30.16,ENE,68,0.0,3.0,83,0.00,,,0.00,0.0,meteohub,2013-03-11 01:18:00,
2013-03-10 21:23:00,59.0,53.8,30.16,ENE,68,0.0,3.0,83,0.00,,,0.00,0.0,meteohub,2013-03-11 01:23:00,
2013-03-10 21:28:00,59.0,54.1,30.15,ENE,68,1.0,3.0,84,0.00,,,0.00,0.0,meteohub,2013-03-11 01:28:00,
2013-03-10 21:33:00,59.0,54.1,30.15,ENE,68,0.0,4.0,84,0.00,,,0.00,0.0,meteohub,2013-03-11 01:33:00,
2013-03-10 21:38:00,58.8,54.0,30.16,ENE,68,0.0,4.0,84,0.00,,,0.00,0.0,meteohub,2013-03-11 01:38:00,
2013-03-10 21:44:00,58.6,53.8,30.15,ENE,68,0.0,4.0,84,0.00,,,0.00,0.0,meteohub,2013-03-11 01:44:00,
2013-03-10 21:49:00,58.6,53.8,30.15,ENE,68,0.0,3.0,84,0.00,,,0.00,0.0,meteohub,2013-03-11 01:49:00,
2013-03-10 21:54:00,58.5,53.6,30.15,ENE,68,0.0,2.0,84,0.00,,,0.00,0.0,meteohub,2013-03-11 01:54:00,
2013-03-10 21:59:00,58.3,53.4,30.15,ENE,68,0.0,2.0,84,0.00,,,0.00,0.0,meteohub,2013-03-11 01:59:00,
2013-03-10 22:04:00,58.3,53.4,30.15,ENE,68,0.0,1.0,84,0.00,,,0.00,0.0,meteohub,2013-03-11 02:04:00,
2013-03-10 22:09:00,57.9,53.4,30.15,ENE,68,0.0,1.0,85,0.00,,,0.00,0.0,meteohub,2013-03-11 02:09:00,
2013-03-10 22:14:00,57.7,53.2,30.15,ENE,68,0.0,1.0,85,0.00,,,0.00,0.0,meteohub,2013-03-11 02:14:00,
2013-03-10 22:19:00,57.6,53.1,30.15,ENE,68,0.0,1.0,85,0.00,,,0.00,0.0,meteohub,2013-03-11 02:19:00,
2013-03-10 22:24:00,57.4,52.9,30.15,ENE,68,0.0,0.0,85,0.00,,,0.00,0.0,meteohub,2013-03-11 02:24:00,
2013-03-10 22:29:00,57.0,52.5,30.15,ENE,68,0.0,0.0,85,0.00,,,0.00,0.0,meteohub,2013-03-11 02:29:00,
2013-03-10 22:34:00,56.7,52.2,30.15,ENE,68,0.0,0.0,85,0.00,,,0.00,0.0,meteohub,2013-03-11 02:34:00,
2013-03-10 22:39:00,56.1,51.6,30.15,ENE,68,0.0,0.0,85,0.00,,,0.00,0.0,meteohub,2013-03-11 02:39:00,
2013-03-10 22:44:00,55.9,51.4,30.15,ENE,68,0.0,0.0,85,0.00,,,0.00,0.0,meteohub,2013-03-11 02:44:00,
2013-03-10 22:49:00,55.6,51.1,30.15,ENE,68,0.0,0.0,85,0.00,,,0.00,0.0,meteohub,2013-03-11 02:49:00,
2013-03-10 22:54:00,55.4,50.9,30.15,ENE,68,0.0,0.0,85,0.00,,,0.00,0.0,meteohub,2013-03-11 02:54:00,
2013-03-10 22:59:00,55.2,50.7,30.15,ENE,68,0.0,0.0,85,0.00,,,0.00,0.0,meteohub,2013-03-11 02:59:00,
2013-03-10 23:04:00,55.0,50.9,30.15,ENE,68,0.0,0.0,86,0.00,,,0.00,0.0,meteohub,2013-03-11 03:04:00,
2013-03-10 23:09:00,54.9,50.7,30.15,ENE,68,0.0,0.0,86,0.00,,,0.00,0.0,meteohub,2013-03-11 03:09:00,
2013-03-10 23:14:00,54.7,50.5,30.15,ENE,68,0.0,0.0,86,0.00,,,0.00,0.0,meteohub,2013-03-11 03:14:00,
2013-03-10 23:19:00,54.3,50.2,30.15,ENE,68,0.0,0.0,86,0.00,,,0.00,0.0,meteohub,2013-03-11 03:19:00,
2013-03-10 23:24:00,54.1,50.0,30.15,ENE,68,0.0,0.0,86,0.00,,,0.00,0.0,meteohub,2013-03-11 03:24:00,
2013-03-10 23:29:00,54.1,50.0,30.15,ENE,68,0.0,0.0,86,0.00,,,0.00,0.0,meteohub,2013-03-11 03:29:00,
2013-03-10 23:34:00,54.0,49.8,30.15,ENE,68,0.0,0.0,86,0.00,,,0.00,0.0,meteohub,2013-03-11 03:34:00,
2013-03-10 23:39:00,53.8,49.6,30.15,ENE,68,0.0,0.0,86,0.00,,,0.00,0.0,meteohub,2013-03-11 03:39:00,
2013-03-10 23:44:00,53.6,49.5,30.15,ENE,68,0.0,0.0,86,0.00,,,0.00,0.0,meteohub,2013-03-11 03:44:00,
2013-03-10 23:49:00,53.4,49.6,30.15,ENE,68,0.0,0.0,87,0.00,,,0.00,0.0,meteohub,2013-03-11 03:49:00,
2013-03-10 23:54:00,53.2,49.5,30.14,ENE,68,0.0,0.0,87,0.00,,,0.00,0.0,meteohub,2013-03-11 03:54:00,
2013-03-10 23:59:00,53.2,49.5,30.14,ENE,68,0.0,0.0,87,0.00,,,0.00,0.0,meteohub,2013-03-11 03:59:00,